Saturday, December 16, 2017, 9:16 PM EST
Back to Local

KEWR, Newark International Airport

Location: Elizabeth, NJ, United States Lat: 40.683
Local Time: 9:16 PM EST ( 2:16 GMT) Lon: -74.167
Time Zone: US/Eastern Elev: 16 ft

Show me the last for .
Show Decoded

2017-12-16 20:51 METAR KEWR 170151Z 35006KT 10SM SCT037 OVC050 03/M03 A3016 RMK AO2 SLP213
                 T00281033 =
2017-12-16 19:51 METAR KEWR 170051Z 31005KT 10SM FEW038 BKN050 OVC060 03/M03 A3014 RMK AO2 SLP205
                 T00331033 =
2017-12-16 18:51 METAR KEWR 162351Z 24008KT 10SM FEW050 OVC060 04/M04 A3009 RMK AO2 SLP189
                 T00391039 10039 20022 53027 =
2017-12-16 17:51 METAR KEWR 162251Z 25008KT 10SM FEW045 OVC055 03/M04 A3006 RMK AO2 SLP179
                 T00331039 =
2017-12-16 16:51 METAR KEWR 162151Z 24011KT 10SM FEW030 BKN043 OVC055 03/M04 A3003 RMK AO2 SLP169
                 T00331039 =
2017-12-16 15:51 METAR KEWR 162051Z 24015KT 10SM SCT030 OVC043 03/M04 A3001 RMK AO2 SLP161
                 T00331039 53003 =
2017-12-16 14:51 METAR KEWR 161951Z 24013KT 10SM SCT030 OVC046 03/M04 A3000 RMK AO2 SLP157
                 T00281044 =
2017-12-16 13:51 METAR KEWR 161851Z 24017G23KT 10SM BKN044 OVC065 03/M05 A2999 RMK AO2 SLP156
                 T00281050 =
2017-12-16 12:51 METAR KEWR 161751Z 23014KT 10SM BKN046 BKN070 BKN260 02/M06 A3000 RMK AO2 SLP159
                 T00221056 10022 21061 56030 =
2017-12-16 11:51 METAR KEWR 161651Z 24013G19KT 10SM SCT050 SCT060 BKN260 02/M06 A3003 RMK AO2
                 SLP168 T00171056 =
2017-12-16 10:51 METAR KEWR 161551Z 23011KT 10SM BKN050 OVC060 M01/M07 A3006 RMK AO2 SLP178
                 T10061067 =
2017-12-16 09:51 METAR KEWR 161451Z 24012KT 10SM BKN045 BKN060 BKN260 M01/M07 A3009 RMK AO2
                 SLP188 T10111072 51020 =
2017-12-16 08:51 METAR KEWR 161351Z 24012KT 10SM BKN070 BKN110 BKN260 M03/M08 A3008 RMK AO2
                 SLP184 T10281078 =
2017-12-16 07:51 METAR KEWR 161251Z 23008KT 10SM SCT250 M05/M09 A3005 RMK AO2 SLP176 T10501089 =
2017-12-16 06:51 METAR KEWR 161151Z 24010KT 10SM SCT250 M06/M09 A3003 RMK AO2 SLP168 4/001 70010
                 T10561089 11050 21083 53017 =
2017-12-16 05:51 METAR KEWR 161051Z 22005KT 10SM FEW250 M07/M10 A3001 RMK AO2 SLP160 T10721100 =
2017-12-16 04:51 METAR KEWR 160951Z 22005KT 10SM FEW250 M07/M09 A2999 RMK AO2 SLP154 T10721094 =
2017-12-16 03:51 METAR KEWR 160851Z 24007KT 10SM FEW250 M06/M09 A2998 RMK AO2 SLP151 T10561089
                 53020 =
2017-12-16 02:51 METAR KEWR 160751Z 26010KT 10SM FEW250 M05/M08 A2996 RMK AO2 SLP146 T10501078 =
2017-12-16 01:51 METAR KEWR 160651Z 26012KT 10SM FEW250 M06/M08 A2994 RMK AO2 SLP136 T10561078 =
2017-12-16 00:51 METAR KEWR 160551Z COR 25007KT 10SM FEW080 M06/M08 A2992 RMK AO2 SLP131 931001
                 4/001 60000 T10611078 11044 21067 56003 =
2017-12-15 23:51 METAR KEWR 160451Z 22007KT 10SM FEW080 M06/M08 A2992 RMK AO2 SLP131 T10611078
                 410281078 =
2017-12-15 22:51 METAR KEWR 160351Z 22007KT 10SM BKN080 BKN110 M06/M08 A2993 RMK AO2 SLP133
                 T10561078 =
2017-12-15 21:51 METAR KEWR 160251Z 24007KT 10SM FEW008 FEW080 SCT250 M06/M08 A2993 RMK AO2
                 SLP135 60000 T10561078 53002 =

Support USWX by starting your Amazon purchase here.